Map

Track Data

SID SEASON NUMBER BASIN SUBBASIN NAME ISO_TIME NATURE LAT LON WMO_WIND WMO_PRES WMO_AGENCY TRACK_TYPE DIST2LAND LANDFALL IFLAG USA_AGENCY USA_ATCF_ID USA_LAT USA_LON USA_RECORD USA_STATUS USA_WIND USA_PRES USA_SSHS USA_R34_NE USA_R34_SE USA_R34_SW USA_R34_NW USA_R50_NE USA_R50_SE USA_R50_SW USA_R50_NW USA_R64_NE USA_R64_SE USA_R64_SW USA_R64_NW USA_POCI USA_ROCI USA_RMW USA_EYE TOKYO_LAT TOKYO_LON TOKYO_GRADE TOKYO_WIND TOKYO_PRES TOKYO_R50_DIR TOKYO_R50_LONG TOKYO_R50_SHORT TOKYO_R30_DIR TOKYO_R30_LONG TOKYO_R30_SHORT TOKYO_LAND CMA_LAT CMA_LON CMA_CAT CMA_WIND CMA_PRES HKO_LAT HKO_LON HKO_CAT HKO_WIND HKO_PRES NEWDELHI_LAT NEWDELHI_LON NEWDELHI_GRADE NEWDELHI_WIND NEWDELHI_PRES NEWDELHI_CI NEWDELHI_DP NEWDELHI_POCI REUNION_LAT REUNION_LON REUNION_TYPE REUNION_WIND REUNION_PRES REUNION_TNUM REUNION_CI REUNION_RMW REUNION_R34_NE REUNION_R34_SE REUNION_R34_SW REUNION_R34_NW REUNION_R50_NE REUNION_R50_SE REUNION_R50_SW REUNION_R50_NW REUNION_R64_NE REUNION_R64_SE REUNION_R64_SW REUNION_R64_NW BOM_LAT BOM_LON BOM_TYPE BOM_WIND BOM_PRES BOM_TNUM BOM_CI BOM_RMW BOM_R34_NE BOM_R34_SE BOM_R34_SW BOM_R34_NW BOM_R50_NE BOM_R50_SE BOM_R50_SW BOM_R50_NW BOM_R64_NE BOM_R64_SE BOM_R64_SW BOM_R64_NW BOM_ROCI BOM_POCI BOM_EYE BOM_POS_METHOD BOM_PRES_METHOD NADI_LAT NADI_LON NADI_CAT NADI_WIND NADI_PRES WELLINGTON_LAT WELLINGTON_LON WELLINGTON_WIND WELLINGTON_PRES DS824_LAT DS824_LON DS824_STAGE DS824_WIND DS824_PRES TD9636_LAT TD9636_LON TD9636_STAGE TD9636_WIND TD9636_PRES TD9635_LAT TD9635_LON TD9635_WIND TD9635_PRES TD9635_ROCI NEUMANN_LAT NEUMANN_LON NEUMANN_CLASS NEUMANN_WIND NEUMANN_PRES MLC_LAT MLC_LON MLC_CLASS MLC_WIND MLC_PRES USA_GUST BOM_GUST BOM_GUST_PER REUNION_GUST REUNION_GUST_PER USA_SEAHGT USA_SEARAD_NE USA_SEARAD_SE USA_SEARAD_SW USA_SEARAD_NW STORM_SPEED STORM_DIR
1947052S13167 1947 18 SP MM NOT_NAMED 1947-02-21 00:00:00 TS -13.2000 167.100 main 176 174 O________OO___ jtwc_sh SH181947 -13.2000 167.100 -1 -13.2000 167.100 TC -13.2000 167.100 2 17 111
1947052S13167 1947 18 SP MM NOT_NAMED 1947-02-21 03:00:00 TS -13.5003 167.914 main 188 184 P________PP___ SH181947 -13.4906 167.920 -1 -13.4906 167.920 TC -13.5198 167.903 2 17 112
1947052S13167 1947 18 SP MM NOT_NAMED 1947-02-21 06:00:00 TS -13.8135 168.692 main 218 218 O________OP___ jtwc_sh SH181947 -13.8000 168.700 -1 -13.8000 168.700 TC -13.8406 168.675 2 16 114
1947052S13167 1947 18 SP MM NOT_NAMED 1947-02-21 09:00:00 TS -14.1502 169.397 main 263 263 P________PP___ SH181947 -14.1423 169.403 -1 -14.1423 169.403 TC -14.1659 169.385 2 14 118
1947052S13167 1947 18 SP MM NOT_NAMED 1947-02-21 12:00:00 TS -14.5000 170.000 main 310 310 O________OO___ jtwc_sh SH181947 -14.5000 170.000 -1 -14.5000 170.000 TC -14.5000 170.000 2 13 123
1947052S13167 1947 18 SP MM NOT_NAMED 1947-02-21 15:00:00 TS -14.8438 170.492 main 334 328 P________PP___ SH181947 -14.8422 170.488 -1 -14.8422 170.488 TC -14.8470 170.500 2 11 129
1947052S13167 1947 18 SP MM NOT_NAMED 1947-02-21 18:00:00 TS -15.2036 170.906 main 353 353 O________OP___ jtwc_sh SH181947 -15.2000 170.900 -1 -15.2000 170.900 TC -15.2107 170.919 2 11 134
1947052S13167 1947 18 SP MM NOT_NAMED 1947-02-21 21:00:00 TS -15.5879 171.296 main 382 382 P________PP___ SH181947 -15.5848 171.293 -1 -15.5848 171.293 TC -15.5941 171.304 2 11 136
1947052S13167 1947 18 SP MM NOT_NAMED 1947-02-22 00:00:00 TS -16.0000 171.700 main 418 418 O________OO___ jtwc_sh SH181947 -16.0000 171.700 -1 -16.0000 171.700 TC -16.0000 171.700 2 12 135
1947052S13167 1947 18 SP MM NOT_NAMED 1947-02-22 03:00:00 TS -16.4416 172.172 main 469 469 P________PP___ SH181947 -16.4425 172.185 -1 -16.4425 172.185 TC -16.4399 172.147 2 13 134
1947052S13167 1947 18 SP MM NOT_NAMED 1947-02-22 06:00:00 TS -16.8996 172.673 main 493 441 O________OP___ jtwc_sh SH181947 -16.9000 172.700 -1 -16.9000 172.700 TC -16.8988 172.618 2 13 134
1947052S13167 1947 18 SP MM NOT_NAMED 1947-02-22 09:00:00 TS -17.3577 173.172 main 429 371 P________PP___ SH181947 -17.3573 173.193 -1 -17.3573 173.193 TC -17.3584 173.131 2 13 133
1947052S13167 1947 18 SP MM NOT_NAMED 1947-02-22 12:00:00 TS -17.8000 173.700 main 371 317 O________OO___ jtwc_sh SH181947 -17.8000 173.700 -1 -17.8000 173.700 TC -17.8000 173.700 2 13 131
1947052S13167 1947 18 SP MM NOT_NAMED 1947-02-22 15:00:00 TS -18.2158 174.218 main 317 262 P________PP___ SH181947 -18.2144 174.198 -1 -18.2144 174.198 TC -18.2184 174.259 2 13 127
1947052S13167 1947 18 SP MM NOT_NAMED 1947-02-22 18:00:00 TS -18.6044 174.828 main 262 205 O________OP___ jtwc_sh SH181947 -18.6000 174.800 -1 -18.6000 174.800 TC -18.6132 174.885 2 15 121
1947052S13167 1947 18 SP MM NOT_NAMED 1947-02-22 21:00:00 TS -18.9734 175.575 main 202 162 P________PP___ SH181947 -18.9718 175.553 -1 -18.9718 175.553 TC -18.9765 175.618 2 17 114
1947052S13167 1947 18 SP MM NOT_NAMED 1947-02-23 00:00:00 TS -19.3000 176.500 main 158 140 O________OO___ jtwc_sh SH181947 -19.3000 176.500 -1 -19.3000 176.500 TC -19.3000 176.500 2 20 107
1947052S13167 1947 18 SP MM NOT_NAMED 1947-02-23 03:00:00 TS -19.5664 177.623 main 148 145 P________PP___ SH181947 -19.5725 177.640 -1 -19.5725 177.640 TC -19.5542 177.588 2 23 102
1947052S13167 1947 18 SP MM NOT_NAMED 1947-02-23 06:00:00 TS -19.7894 178.873 main 183 183 O________OP___ jtwc_sh SH181947 -19.8000 178.900 -1 -19.8000 178.900 TC -19.7681 178.818 2 24 100
1947052S13167 1947 18 SP MM NOT_NAMED 1947-02-23 09:00:00 TS -19.9855 180.143 main 258 258 P________PP___ SH181947 -19.9921 -179.842 -1 -19.9921 -179.842 TC -19.9725 -179.886 2 24 100
1947052S13167 1947 18 SP MM NOT_NAMED 1947-02-23 12:00:00 TS -20.2000 181.400 main 368 368 O________OO___ jtwc_sh SH181947 -20.2000 -178.600 -1 -20.2000 181.400 TC -20.2000 -178.600 2 23 102
1947052S13167 1947 18 SP MM NOT_NAMED 1947-02-23 15:00:00 TS -20.4660 182.571 main 489 489 P________PP___ SH181947 -20.4764 -177.435 -1 -20.4764 -177.435 TC -20.4450 -177.417 2 22 105
1947052S13167 1947 18 SP MM NOT_NAMED 1947-02-23 18:00:00 TS -20.7756 183.714 main 600 600 O________OP___ jtwc_sh SH181947 -20.8000 -176.300 -1 -20.8000 183.700 TC -20.7268 -176.258 2 22 106
1947052S13167 1947 18 SP MM NOT_NAMED 1947-02-23 21:00:00 TS -21.0980 184.866 main 712 712 P________PP___ SH181947 -21.1119 -175.141 -1 -21.1119 -175.141 TC -21.0702 -175.119 2 23 109
1947052S13167 1947 18 SP MM NOT_NAMED 1947-02-24 00:00:00 TS -21.5000 186.000 main 828 828 O________OO___ jtwc_sh SH181947 -21.5000 -174.000 -1 -21.5000 186.000 TC -21.5000 -174.000 2 23 113
1947052S13167 1947 18 SP MM NOT_NAMED 1947-02-24 03:00:00 TS -21.9996 187.124 main 918 917 P________PP___ SH181947 -21.9966 -172.892 -1 -21.9966 -172.892 TC -22.0055 -172.845 2 23 118
1947052S13167 1947 18 SP MM NOT_NAMED 1947-02-24 06:00:00 TS -22.5999 188.230 main 985 985 O________OP___ jtwc_sh SH181947 -22.6000 -171.800 -1 -22.6000 188.200 TC -22.5996 -171.710 2 24 122
1947052S13167 1947 18 SP MM NOT_NAMED 1947-02-24 09:00:00 TS -23.2643 189.342 main 1074 1074 P________PP___ SH181947 -23.2622 -170.677 -1 -23.2622 -170.677 TC -23.2686 -170.619 2 24 125
1947052S13167 1947 18 SP MM NOT_NAMED 1947-02-24 12:00:00 TS -24.0000 190.400 main 1173 1173 O________OO___ jtwc_sh SH181947 -24.0000 -169.600 -1 -24.0000 190.400 TC -24.0000 -169.600 2 24 129
1947052S13167 1947 18 SP MM NOT_NAMED 1947-02-24 15:00:00 TS -24.7786 191.379 main 1286 1286 P________PP___ SH181947 -24.7770 -168.597 -1 -24.7770 -168.597 TC -24.7817 -168.671 2 23 133
1947052S13167 1947 18 SP MM NOT_NAMED 1947-02-24 18:00:00 TS -25.6005 192.262 main 1400 1400 O________OP___ jtwc_sh SH181947 -25.6000 -167.700 -1 -25.6000 192.300 TC -25.6014 -167.813 2 23 138
1947052S13167 1947 18 SP MM NOT_NAMED 1947-02-24 21:00:00 TS -26.4456 193.054 main 1513 1513 P________PP___ SH181947 -26.4456 -166.919 -1 -26.4456 -166.919 TC -26.4456 -166.998 2 22 141
1947052S13167 1947 18 SP MM NOT_NAMED 1947-02-25 00:00:00 TS -27.3000 193.800 main 1632 O________OO___ jtwc_sh SH181947 -27.3000 -166.200 -1 -27.3000 193.800 TC -27.3000 -166.200 2 22 142

Digital Typhoon Data and Search

About IBTrACS Database

This database is a web-friendly format of International Best Track Archive for Climate Stewardship (IBTrACS), a global best track data archive curated by NOAA dating back to 1842.

Updated: 2021-10-21